sensor_id;sensor_type;location;lat;lon;timestamp;temperature;humidity
68139;DHT22;54940;50.842;4.410;2023-09-19T04:09:13;15.30;99.90
68139;DHT22;54940;50.842;4.410;2023-09-19T04:11:39;15.20;99.90
68139;DHT22;54940;50.842;4.410;2023-09-19T04:14:05;15.20;99.90
68139;DHT22;54940;50.842;4.410;2023-09-19T04:16:30;15.20;99.90
68139;DHT22;54940;50.842;4.410;2023-09-19T04:18:56;15.20;99.90
68139;DHT22;54940;50.842;4.410;2023-09-19T04:21:22;15.20;99.90
68139;DHT22;54940;50.842;4.410;2023-09-19T04:23:47;15.20;99.90
68139;DHT22;54940;50.842;4.410;2023-09-19T04:26:13;15.20;99.90
68139;DHT22;54940;50.842;4.410;2023-09-19T04:28:38;15.30;99.90
68139;DHT22;54940;50.842;4.410;2023-09-19T04:31:05;15.20;99.90
68139;DHT22;54940;50.842;4.410;2023-09-19T04:33:30;15.30;99.90
68139;DHT22;54940;50.842;4.410;2023-09-19T04:35:56;15.30;99.90
68139;DHT22;54940;50.842;4.410;2023-09-19T04:38:22;15.30;99.90
68139;DHT22;54940;50.842;4.410;2023-09-19T04:40:48;15.30;99.90
68139;DHT22;54940;50.842;4.410;2023-09-19T04:43:14;15.30;99.90
68139;DHT22;54940;50.842;4.410;2023-09-19T04:45:41;15.30;99.90
68139;DHT22;54940;50.842;4.410;2023-09-19T04:48:07;15.20;99.90
68139;DHT22;54940;50.842;4.410;2023-09-19T04:50:33;15.20;99.90
68139;DHT22;54940;50.842;4.410;2023-09-19T04:52:59;15.20;99.90
68139;DHT22;54940;50.842;4.410;2023-09-19T04:55:26;15.20;99.90
68139;DHT22;54940;50.842;4.410;2023-09-19T04:57:52;15.20;99.90
68139;DHT22;54940;50.842;4.410;2023-09-19T05:00:22;15.20;99.90
68139;DHT22;54940;50.842;4.410;2023-09-19T05:02:54;15.20;99.90
68139;DHT22;54940;50.842;4.410;2023-09-19T05:05:22;15.20;99.90
68139;DHT22;54940;50.842;4.410;2023-09-19T05:07:49;15.10;99.90
68139;DHT22;54940;50.842;4.410;2023-09-19T05:10:15;15.20;99.90
68139;DHT22;54940;50.842;4.410;2023-09-19T05:12:43;15.10;99.90
68139;DHT22;54940;50.842;4.410;2023-09-19T05:15:14;15.00;99.90
68139;DHT22;54940;50.842;4.410;2023-09-19T05:17:44;15.00;99.90
68139;DHT22;54940;50.842;4.410;2023-09-19T05:20:12;15.00;99.90
68139;DHT22;54940;50.842;4.410;2023-09-19T05:22:50;15.00;99.90
68139;DHT22;54940;50.842;4.410;2023-09-19T05:25:16;15.10;99.90
68139;DHT22;54940;50.842;4.410;2023-09-19T05:27:44;15.10;99.90
68139;DHT22;54940;50.842;4.410;2023-09-19T05:30:10;15.10;99.90
68139;DHT22;54940;50.842;4.410;2023-09-19T05:32:36;15.00;99.90
68139;DHT22;54940;50.842;4.410;2023-09-19T05:35:01;15.00;99.90
68139;DHT22;54940;50.842;4.410;2023-09-19T05:37:28;15.00;99.90
68139;DHT22;54940;50.842;4.410;2023-09-19T05:39:55;15.00;99.90
68139;DHT22;54940;50.842;4.410;2023-09-19T05:42:20;15.00;99.90
68139;DHT22;54940;50.842;4.410;2023-09-19T05:44:46;15.10;99.90
68139;DHT22;54940;50.842;4.410;2023-09-19T05:47:12;15.10;99.90
68139;DHT22;54940;50.842;4.410;2023-09-19T05:49:38;15.00;99.90
68139;DHT22;54940;50.842;4.410;2023-09-19T05:52:06;15.10;99.90
68139;DHT22;54940;50.842;4.410;2023-09-19T05:54:33;15.10;99.90
68139;DHT22;54940;50.842;4.410;2023-09-19T05:57:00;15.10;99.90
68139;DHT22;54940;50.842;4.410;2023-09-19T05:59:26;15.10;99.90
68139;DHT22;54940;50.842;4.410;2023-09-19T06:01:51;15.20;99.90
68139;DHT22;54940;50.842;4.410;2023-09-19T06:04:17;15.20;99.90
68139;DHT22;54940;50.842;4.410;2023-09-19T06:06:45;15.10;99.90
68139;DHT22;54940;50.842;4.410;2023-09-19T06:09:10;15.20;99.90
68139;DHT22;54940;50.842;4.410;2023-09-19T06:11:41;15.20;99.90
68139;DHT22;54940;50.842;4.410;2023-09-19T06:14:06;15.20;99.90
68139;DHT22;54940;50.842;4.410;2023-09-19T06:16:32;15.20;99.90
68139;DHT22;54940;50.842;4.410;2023-09-19T06:18:58;15.30;99.90
68139;DHT22;54940;50.842;4.410;2023-09-19T06:21:26;15.30;99.90
68139;DHT22;54940;50.842;4.410;2023-09-19T06:23:53;15.30;99.90
68139;DHT22;54940;50.842;4.410;2023-09-19T06:26:18;15.40;99.90
68139;DHT22;54940;50.842;4.410;2023-09-19T06:28:44;15.30;99.90
68139;DHT22;54940;50.842;4.410;2023-09-19T06:31:10;15.40;99.90
68139;DHT22;54940;50.842;4.410;2023-09-19T06:33:37;15.40;99.90
68139;DHT22;54940;50.842;4.410;2023-09-19T06:36:06;15.50;99.90
68139;DHT22;54940;50.842;4.410;2023-09-19T06:38:32;15.50;99.90
68139;DHT22;54940;50.842;4.410;2023-09-19T06:41:00;15.50;99.90
68139;DHT22;54940;50.842;4.410;2023-09-19T06:43:26;15.60;99.90
68139;DHT22;54940;50.842;4.410;2023-09-19T06:45:53;15.60;99.90
68139;DHT22;54940;50.842;4.410;2023-09-19T06:48:20;15.60;99.90
68139;DHT22;54940;50.842;4.410;2023-09-19T06:50:46;15.60;99.90
68139;DHT22;54940;50.842;4.410;2023-09-19T06:53:13;15.70;99.90
68139;DHT22;54940;50.842;4.410;2023-09-19T06:55:41;15.80;99.90
68139;DHT22;54940;50.842;4.410;2023-09-19T06:58:09;15.80;99.90
68139;DHT22;54940;50.842;4.410;2023-09-19T07:00:36;15.80;99.90
68139;DHT22;54940;50.842;4.410;2023-09-19T07:03:03;15.90;99.90
68139;DHT22;54940;50.842;4.410;2023-09-19T07:05:30;16.00;99.90
68139;DHT22;54940;50.842;4.410;2023-09-19T07:07:59;16.10;99.90
68139;DHT22;54940;50.842;4.410;2023-09-19T07:10:26;16.20;99.90
68139;DHT22;54940;50.842;4.410;2023-09-19T07:13:05;16.20;99.90
68139;DHT22;54940;50.842;4.410;2023-09-19T07:15:36;16.30;99.90
68139;DHT22;54940;50.842;4.410;2023-09-19T07:18:05;16.40;99.90
68139;DHT22;54940;50.842;4.410;2023-09-19T07:20:32;16.40;99.90
68139;DHT22;54940;50.842;4.410;2023-09-19T07:23:01;16.60;99.90
68139;DHT22;54940;50.842;4.410;2023-09-19T07:25:28;17.00;99.90
68139;DHT22;54940;50.842;4.410;2023-09-19T07:27:57;17.20;99.90
68139;DHT22;54940;50.842;4.410;2023-09-19T07:30:26;17.40;99.90
68139;DHT22;54940;50.842;4.410;2023-09-19T07:32:52;17.50;99.90
68139;DHT22;54940;50.842;4.410;2023-09-19T07:35:18;17.70;99.90
68139;DHT22;54940;50.842;4.410;2023-09-19T07:37:46;17.70;99.90
68139;DHT22;54940;50.842;4.410;2023-09-19T07:40:15;17.50;99.90
68139;DHT22;54940;50.842;4.410;2023-09-19T07:42:41;17.70;99.90
68139;DHT22;54940;50.842;4.410;2023-09-19T07:45:10;17.70;99.90
68139;DHT22;54940;50.842;4.410;2023-09-19T07:47:50;17.80;99.90
68139;DHT22;54940;50.842;4.410;2023-09-19T07:50:17;17.90;99.90
68139;DHT22;54940;50.842;4.410;2023-09-19T07:52:45;18.10;99.90
68139;DHT22;54940;50.842;4.410;2023-09-19T07:55:11;18.30;99.90
68139;DHT22;54940;50.842;4.410;2023-09-19T07:57:41;18.30;99.90
68139;DHT22;54940;50.842;4.410;2023-09-19T08:00:08;18.10;99.90
68139;DHT22;54940;50.842;4.410;2023-09-19T08:02:36;18.20;99.90
68139;DHT22;54940;50.842;4.410;2023-09-19T08:05:03;18.10;99.90
68139;DHT22;54940;50.842;4.410;2023-09-19T08:07:32;18.10;99.90
68139;DHT22;54940;50.842;4.410;2023-09-19T08:09:58;18.30;99.90
68139;DHT22;54940;50.842;4.410;2023-09-19T08:12:24;18.50;99.90
68139;DHT22;54940;50.842;4.410;2023-09-19T08:14:50;18.60;99.90
68139;DHT22;54940;50.842;4.410;2023-09-19T08:17:16;18.50;99.90
68139;DHT22;54940;50.842;4.410;2023-09-19T08:19:42;18.30;99.90
68139;DHT22;54940;50.842;4.410;2023-09-19T08:22:11;18.20;99.90
68139;DHT22;54940;50.842;4.410;2023-09-19T08:24:37;18.30;99.90
68139;DHT22;54940;50.842;4.410;2023-09-19T08:27:05;18.60;99.90
68139;DHT22;54940;50.842;4.410;2023-09-19T08:29:34;18.70;99.90
68139;DHT22;54940;50.842;4.410;2023-09-19T08:32:00;18.70;99.90
68139;DHT22;54940;50.842;4.410;2023-09-19T08:34:26;18.80;99.90
68139;DHT22;54940;50.842;4.410;2023-09-19T08:36:54;18.70;99.90
68139;DHT22;54940;50.842;4.410;2023-09-19T08:39:25;18.80;99.90
68139;DHT22;54940;50.842;4.410;2023-09-19T08:42:01;18.90;99.90
68139;DHT22;54940;50.842;4.410;2023-09-19T08:44:30;19.00;99.90
68139;DHT22;54940;50.842;4.410;2023-09-19T08:47:04;19.10;99.90
68139;DHT22;54940;50.842;4.410;2023-09-19T08:50:01;18.90;99.90
68139;DHT22;54940;50.842;4.410;2023-09-19T08:52:37;19.10;99.90
68139;DHT22;54940;50.842;4.410;2023-09-19T08:55:06;19.10;99.90
68139;DHT22;54940;50.842;4.410;2023-09-19T08:57:36;19.00;99.90
68139;DHT22;54940;50.842;4.410;2023-09-19T09:00:07;19.10;99.90
68139;DHT22;54940;50.842;4.410;2023-09-19T09:02:40;19.30;99.90
68139;DHT22;54940;50.842;4.410;2023-09-19T09:05:08;19.50;99.90
68139;DHT22;54940;50.842;4.410;2023-09-19T09:07:35;19.50;99.90
68139;DHT22;54940;50.842;4.410;2023-09-19T09:10:05;19.60;99.90
68139;DHT22;54940;50.842;4.410;2023-09-19T09:12:33;19.80;99.90
68139;DHT22;54940;50.842;4.410;2023-09-19T09:15:00;19.70;99.90
68139;DHT22;54940;50.842;4.410;2023-09-19T09:17:26;19.70;99.90
68139;DHT22;54940;50.842;4.410;2023-09-19T09:19:55;19.80;99.90
68139;DHT22;54940;50.842;4.410;2023-09-19T09:22:21;19.60;99.90
68139;DHT22;54940;50.842;4.410;2023-09-19T09:24:57;19.60;99.90
68139;DHT22;54940;50.842;4.410;2023-09-19T09:27:31;19.50;99.90
68139;DHT22;54940;50.842;4.410;2023-09-19T09:29:59;19.30;99.90
68139;DHT22;54940;50.842;4.410;2023-09-19T09:32:29;19.30;99.90
68139;DHT22;54940;50.842;4.410;2023-09-19T09:35:00;19.10;99.90
68139;DHT22;54940;50.842;4.410;2023-09-19T09:37:26;19.20;99.90
68139;DHT22;54940;50.842;4.410;2023-09-19T09:40:01;19.20;99.90
68139;DHT22;54940;50.842;4.410;2023-09-19T09:42:56;19.30;99.90
68139;DHT22;54940;50.842;4.410;2023-09-19T09:45:24;19.30;99.90
68139;DHT22;54940;50.842;4.410;2023-09-19T09:48:00;19.30;99.90
68139;DHT22;54940;50.842;4.410;2023-09-19T09:52:58;19.40;99.90
68139;DHT22;54940;50.842;4.410;2023-09-19T09:58:25;19.10;99.90
68139;DHT22;54940;50.842;4.410;2023-09-19T10:00:55;19.10;99.90
68139;DHT22;54940;50.842;4.410;2023-09-19T10:03:37;19.10;99.90
68139;DHT22;54940;50.842;4.410;2023-09-19T10:06:12;19.00;99.90
68139;DHT22;54940;50.842;4.410;2023-09-19T10:09:08;19.10;99.90
68139;DHT22;54940;50.842;4.410;2023-09-19T10:12:03;19.10;99.90
68139;DHT22;54940;50.842;4.410;2023-09-19T10:14:34;19.10;99.90
68139;DHT22;54940;50.842;4.410;2023-09-19T10:17:02;19.10;99.90
68139;DHT22;54940;50.842;4.410;2023-09-19T10:19:37;19.30;99.90
68139;DHT22;54940;50.842;4.410;2023-09-19T10:22:11;19.60;99.90
68139;DHT22;54940;50.842;4.410;2023-09-19T10:24:38;19.70;99.90
68139;DHT22;54940;50.842;4.410;2023-09-19T10:27:06;20.00;99.90
68139;DHT22;54940;50.842;4.410;2023-09-19T10:29:34;20.40;99.90
68139;DHT22;54940;50.842;4.410;2023-09-19T10:32:03;20.40;99.90
68139;DHT22;54940;50.842;4.410;2023-09-19T10:34:35;20.30;99.90
68139;DHT22;54940;50.842;4.410;2023-09-19T10:37:02;20.30;99.90
68139;DHT22;54940;50.842;4.410;2023-09-19T10:39:32;20.30;99.90
68139;DHT22;54940;50.842;4.410;2023-09-19T10:42:02;20.40;99.90
68139;DHT22;54940;50.842;4.410;2023-09-19T10:44:32;20.40;99.90
68139;DHT22;54940;50.842;4.410;2023-09-19T10:46:58;20.60;99.90
68139;DHT22;54940;50.842;4.410;2023-09-19T10:49:24;20.70;99.90
68139;DHT22;54940;50.842;4.410;2023-09-19T10:51:56;20.80;99.90
68139;DHT22;54940;50.842;4.410;2023-09-19T10:54:27;20.90;99.90
68139;DHT22;54940;50.842;4.410;2023-09-19T10:56:54;20.80;99.90
68139;DHT22;54940;50.842;4.410;2023-09-19T10:59:24;20.90;99.90
68139;DHT22;54940;50.842;4.410;2023-09-19T11:01:50;20.90;99.90
68139;DHT22;54940;50.842;4.410;2023-09-19T11:04:32;20.80;99.90
68139;DHT22;54940;50.842;4.410;2023-09-19T11:07:13;20.90;99.90
68139;DHT22;54940;50.842;4.410;2023-09-19T11:09:50;21.00;99.90
68139;DHT22;54940;50.842;4.410;2023-09-19T11:14:57;21.30;99.90
68139;DHT22;54940;50.842;4.410;2023-09-19T11:17:34;21.40;99.90
68139;DHT22;54940;50.842;4.410;2023-09-19T11:30:48;21.90;99.90
68139;DHT22;54940;50.842;4.410;2023-09-19T11:46:33;21.10;99.90
68139;DHT22;54940;50.842;4.410;2023-09-19T11:49:06;21.20;99.90
68139;DHT22;54940;50.842;4.410;2023-09-19T11:51:43;21.10;99.90
68139;DHT22;54940;50.842;4.410;2023-09-19T11:54:13;21.00;99.90
68139;DHT22;54940;50.842;4.410;2023-09-19T11:56:43;20.90;99.90
68139;DHT22;54940;50.842;4.410;2023-09-19T11:59:11;20.60;99.90
68139;DHT22;54940;50.842;4.410;2023-09-19T12:01:38;20.50;99.90
68139;DHT22;54940;50.842;4.410;2023-09-19T12:04:11;20.30;99.90
68139;DHT22;54940;50.842;4.410;2023-09-19T12:06:37;20.40;99.90
68139;DHT22;54940;50.842;4.410;2023-09-19T12:09:15;20.50;99.90
68139;DHT22;54940;50.842;4.410;2023-09-19T12:11:42;20.40;99.90
68139;DHT22;54940;50.842;4.410;2023-09-19T12:14:11;20.40;99.90
68139;DHT22;54940;50.842;4.410;2023-09-19T12:16:57;20.40;99.90
68139;DHT22;54940;50.842;4.410;2023-09-19T12:19:24;20.40;99.90
68139;DHT22;54940;50.842;4.410;2023-09-19T12:22:00;20.20;99.90
68139;DHT22;54940;50.842;4.410;2023-09-19T12:24:34;20.20;99.90
68139;DHT22;54940;50.842;4.410;2023-09-19T12:27:06;20.20;99.90
68139;DHT22;54940;50.842;4.410;2023-09-19T12:29:48;20.30;99.90
68139;DHT22;54940;50.842;4.410;2023-09-19T12:32:36;20.30;99.90
68139;DHT22;54940;50.842;4.410;2023-09-19T12:35:06;20.30;99.90
68139;DHT22;54940;50.842;4.410;2023-09-19T12:37:37;20.30;99.90
68139;DHT22;54940;50.842;4.410;2023-09-19T12:40:11;20.40;99.90
68139;DHT22;54940;50.842;4.410;2023-09-19T12:42:44;20.40;99.90
68139;DHT22;54940;50.842;4.410;2023-09-19T12:45:11;20.50;99.90
68139;DHT22;54940;50.842;4.410;2023-09-19T12:47:39;20.60;99.90
68139;DHT22;54940;50.842;4.410;2023-09-19T12:50:15;20.70;99.90
68139;DHT22;54940;50.842;4.410;2023-09-19T12:52:48;20.90;99.90
68139;DHT22;54940;50.842;4.410;2023-09-19T12:58:07;21.00;99.90
68139;DHT22;54940;50.842;4.410;2023-09-19T13:00:40;20.90;99.90
68139;DHT22;54940;50.842;4.410;2023-09-19T13:03:24;20.60;99.90
68139;DHT22;54940;50.842;4.410;2023-09-19T13:06:00;20.60;99.90
68139;DHT22;54940;50.842;4.410;2023-09-19T13:08:39;20.50;99.90
68139;DHT22;54940;50.842;4.410;2023-09-19T13:11:15;20.50;99.90
68139;DHT22;54940;50.842;4.410;2023-09-19T13:13:43;20.60;99.90
68139;DHT22;54940;50.842;4.410;2023-09-19T13:16:19;20.60;99.90
68139;DHT22;54940;50.842;4.410;2023-09-19T13:18:51;20.50;99.90
68139;DHT22;54940;50.842;4.410;2023-09-19T13:21:31;20.40;99.90
68139;DHT22;54940;50.842;4.410;2023-09-19T13:24:24;20.60;99.90
68139;DHT22;54940;50.842;4.410;2023-09-19T13:26:56;20.60;99.90
68139;DHT22;54940;50.842;4.410;2023-09-19T13:29:22;20.70;99.90
68139;DHT22;54940;50.842;4.410;2023-09-19T13:31:52;20.70;99.90
68139;DHT22;54940;50.842;4.410;2023-09-19T13:34:20;20.80;99.90
68139;DHT22;54940;50.842;4.410;2023-09-19T13:36:46;20.70;99.90
68139;DHT22;54940;50.842;4.410;2023-09-19T13:39:16;20.70;99.90
68139;DHT22;54940;50.842;4.410;2023-09-19T13:41:44;20.70;99.90
68139;DHT22;54940;50.842;4.410;2023-09-19T13:44:10;20.60;99.90
68139;DHT22;54940;50.842;4.410;2023-09-19T13:46:36;20.60;99.90
68139;DHT22;54940;50.842;4.410;2023-09-19T13:49:04;20.50;99.90
68139;DHT22;54940;50.842;4.410;2023-09-19T13:51:31;20.50;99.90
68139;DHT22;54940;50.842;4.410;2023-09-19T13:53:57;20.50;99.90
68139;DHT22;54940;50.842;4.410;2023-09-19T13:56:22;20.50;99.90
68139;DHT22;54940;50.842;4.410;2023-09-19T13:58:55;20.40;99.90
68139;DHT22;54940;50.842;4.410;2023-09-19T14:01:21;20.30;99.90
68139;DHT22;54940;50.842;4.410;2023-09-19T14:03:49;20.40;99.90
68139;DHT22;54940;50.842;4.410;2023-09-19T14:06:17;20.40;99.90
68139;DHT22;54940;50.842;4.410;2023-09-19T14:08:44;20.40;99.90
68139;DHT22;54940;50.842;4.410;2023-09-19T14:11:13;20.40;99.90
68139;DHT22;54940;50.842;4.410;2023-09-19T14:13:40;20.40;99.90
68139;DHT22;54940;50.842;4.410;2023-09-19T14:16:06;20.40;99.90
68139;DHT22;54940;50.842;4.410;2023-09-19T14:18:32;20.30;99.90
68139;DHT22;54940;50.842;4.410;2023-09-19T14:21:03;20.40;99.90
68139;DHT22;54940;50.842;4.410;2023-09-19T14:23:29;20.40;99.90
68139;DHT22;54940;50.842;4.410;2023-09-19T14:25:54;20.50;99.90
68139;DHT22;54940;50.842;4.410;2023-09-19T14:28:22;20.50;99.90
68139;DHT22;54940;50.842;4.410;2023-09-19T14:30:50;20.60;99.90
68139;DHT22;54940;50.842;4.410;2023-09-19T14:33:16;20.60;99.90
68139;DHT22;54940;50.842;4.410;2023-09-19T14:35:42;20.60;99.90
68139;DHT22;54940;50.842;4.410;2023-09-19T14:38:07;20.60;99.90
68139;DHT22;54940;50.842;4.410;2023-09-19T14:40:33;20.70;99.90
68139;DHT22;54940;50.842;4.410;2023-09-19T14:42:58;20.90;99.90
68139;DHT22;54940;50.842;4.410;2023-09-19T14:45:24;21.10;99.90
68139;DHT22;54940;50.842;4.410;2023-09-19T14:47:51;21.10;99.90
68139;DHT22;54940;50.842;4.410;2023-09-19T14:50:21;20.90;99.90
68139;DHT22;54940;50.842;4.410;2023-09-19T14:52:48;20.90;99.90
68139;DHT22;54940;50.842;4.410;2023-09-19T14:55:15;20.80;99.90
68139;DHT22;54940;50.842;4.410;2023-09-19T14:57:42;20.70;99.90
68139;DHT22;54940;50.842;4.410;2023-09-19T15:00:11;20.50;99.90
68139;DHT22;54940;50.842;4.410;2023-09-19T15:02:38;20.40;99.90
68139;DHT22;54940;50.842;4.410;2023-09-19T15:05:06;20.40;99.90
68139;DHT22;54940;50.842;4.410;2023-09-19T15:07:38;20.40;99.90
68139;DHT22;54940;50.842;4.410;2023-09-19T15:10:05;20.30;99.90
68139;DHT22;54940;50.842;4.410;2023-09-19T15:12:37;20.30;99.90
68139;DHT22;54940;50.842;4.410;2023-09-19T15:15:05;20.30;99.90
68139;DHT22;54940;50.842;4.410;2023-09-19T15:17:35;20.20;99.90
68139;DHT22;54940;50.842;4.410;2023-09-19T15:20:01;20.20;99.90
68139;DHT22;54940;50.842;4.410;2023-09-19T15:22:27;20.10;99.90
68139;DHT22;54940;50.842;4.410;2023-09-19T15:24:55;20.00;99.90
68139;DHT22;54940;50.842;4.410;2023-09-19T15:27:21;20.10;99.90
68139;DHT22;54940;50.842;4.410;2023-09-19T15:29:47;20.00;99.90
68139;DHT22;54940;50.842;4.410;2023-09-19T15:32:13;20.00;99.90
68139;DHT22;54940;50.842;4.410;2023-09-19T15:34:38;19.90;99.90
68139;DHT22;54940;50.842;4.410;2023-09-19T15:37:04;20.00;99.90
68139;DHT22;54940;50.842;4.410;2023-09-19T15:39:30;19.90;99.90
68139;DHT22;54940;50.842;4.410;2023-09-19T15:41:59;19.80;99.90
68139;DHT22;54940;50.842;4.410;2023-09-19T15:44:24;19.80;99.90
68139;DHT22;54940;50.842;4.410;2023-09-19T15:46:52;19.70;99.90
68139;DHT22;54940;50.842;4.410;2023-09-19T15:49:18;19.80;99.90
68139;DHT22;54940;50.842;4.410;2023-09-19T15:51:46;19.80;99.90
68139;DHT22;54940;50.842;4.410;2023-09-19T15:54:15;19.80;99.90
68139;DHT22;54940;50.842;4.410;2023-09-19T15:56:45;19.90;99.90
68139;DHT22;54940;50.842;4.410;2023-09-19T15:59:12;19.80;99.90
68139;DHT22;54940;50.842;4.410;2023-09-19T16:01:39;19.90;99.90
68139;DHT22;54940;50.842;4.410;2023-09-19T16:04:09;19.80;99.90
68139;DHT22;54940;50.842;4.410;2023-09-19T16:06:37;19.80;99.90
68139;DHT22;54940;50.842;4.410;2023-09-19T16:09:04;19.80;99.90
68139;DHT22;54940;50.842;4.410;2023-09-19T16:11:33;19.80;99.90
68139;DHT22;54940;50.842;4.410;2023-09-19T16:13:59;19.80;99.90
68139;DHT22;54940;50.842;4.410;2023-09-19T16:16:29;19.70;99.90
68139;DHT22;54940;50.842;4.410;2023-09-19T16:19:02;19.70;99.90
68139;DHT22;54940;50.842;4.410;2023-09-19T16:21:33;19.70;99.90
68139;DHT22;54940;50.842;4.410;2023-09-19T16:24:03;19.60;99.90
68139;DHT22;54940;50.842;4.410;2023-09-19T16:26:29;19.60;99.90
68139;DHT22;54940;50.842;4.410;2023-09-19T16:28:57;19.60;99.90
68139;DHT22;54940;50.842;4.410;2023-09-19T16:31:26;19.60;99.90
68139;DHT22;54940;50.842;4.410;2023-09-19T16:33:55;19.50;99.90
68139;DHT22;54940;50.842;4.410;2023-09-19T16:36:22;19.50;99.90
68139;DHT22;54940;50.842;4.410;2023-09-19T16:38:48;19.50;99.90
68139;DHT22;54940;50.842;4.410;2023-09-19T16:41:18;19.50;99.90
68139;DHT22;54940;50.842;4.410;2023-09-19T16:43:46;19.50;99.90
68139;DHT22;54940;50.842;4.410;2023-09-19T16:46:15;19.50;99.90
68139;DHT22;54940;50.842;4.410;2023-09-19T16:48:45;19.50;99.90
68139;DHT22;54940;50.842;4.410;2023-09-19T16:51:12;19.40;99.90
68139;DHT22;54940;50.842;4.410;2023-09-19T16:53:41;19.40;99.90
68139;DHT22;54940;50.842;4.410;2023-09-19T16:56:12;19.40;99.90
68139;DHT22;54940;50.842;4.410;2023-09-19T16:58:41;19.30;99.90
68139;DHT22;54940;50.842;4.410;2023-09-19T17:01:12;19.30;99.90
68139;DHT22;54940;50.842;4.410;2023-09-19T17:03:39;19.30;99.90
68139;DHT22;54940;50.842;4.410;2023-09-19T17:06:12;19.30;99.90
68139;DHT22;54940;50.842;4.410;2023-09-19T17:08:41;19.30;99.90
68139;DHT22;54940;50.842;4.410;2023-09-19T17:11:11;19.30;99.90
68139;DHT22;54940;50.842;4.410;2023-09-19T17:13:39;19.30;99.90
68139;DHT22;54940;50.842;4.410;2023-09-19T17:16:15;19.20;99.90
68139;DHT22;54940;50.842;4.410;2023-09-19T17:18:45;19.20;99.90
68139;DHT22;54940;50.842;4.410;2023-09-19T17:21:11;19.20;99.90
68139;DHT22;54940;50.842;4.410;2023-09-19T17:23:39;19.20;99.90
68139;DHT22;54940;50.842;4.410;2023-09-19T17:26:10;19.10;99.90
68139;DHT22;54940;50.842;4.410;2023-09-19T17:28:37;19.10;99.90
68139;DHT22;54940;50.842;4.410;2023-09-19T17:31:09;19.10;99.90
68139;DHT22;54940;50.842;4.410;2023-09-19T17:33:36;19.10;99.90
68139;DHT22;54940;50.842;4.410;2023-09-19T17:38:32;18.80;99.90
68139;DHT22;54940;50.842;4.410;2023-09-19T17:41:01;18.80;99.90
68139;DHT22;54940;50.842;4.410;2023-09-19T17:43:28;18.80;99.90
68139;DHT22;54940;50.842;4.410;2023-09-19T17:45:54;18.80;99.90
68139;DHT22;54940;50.842;4.410;2023-09-19T17:48:20;18.80;99.90
68139;DHT22;54940;50.842;4.410;2023-09-19T17:50:45;18.80;99.90
68139;DHT22;54940;50.842;4.410;2023-09-19T17:53:12;18.80;99.90
68139;DHT22;54940;50.842;4.410;2023-09-19T17:55:38;18.80;99.90
68139;DHT22;54940;50.842;4.410;2023-09-19T17:58:04;18.80;99.90
68139;DHT22;54940;50.842;4.410;2023-09-19T18:00:31;18.70;99.90
68139;DHT22;54940;50.842;4.410;2023-09-19T18:03:01;18.70;99.90
68139;DHT22;54940;50.842;4.410;2023-09-19T18:05:28;18.70;99.90
68139;DHT22;54940;50.842;4.410;2023-09-19T18:07:54;18.70;99.90
68139;DHT22;54940;50.842;4.410;2023-09-19T18:10:20;18.70;99.90
68139;DHT22;54940;50.842;4.410;2023-09-19T18:12:45;18.70;99.90
68139;DHT22;54940;50.842;4.410;2023-09-19T18:15:12;18.70;99.90
68139;DHT22;54940;50.842;4.410;2023-09-19T18:17:38;18.70;99.90
68139;DHT22;54940;50.842;4.410;2023-09-19T18:20:04;18.80;99.90
68139;DHT22;54940;50.842;4.410;2023-09-19T18:22:35;18.70;99.90
68139;DHT22;54940;50.842;4.410;2023-09-19T18:25:01;18.70;99.90
68139;DHT22;54940;50.842;4.410;2023-09-19T18:27:27;18.70;99.90
68139;DHT22;54940;50.842;4.410;2023-09-19T18:29:56;18.70;99.90
68139;DHT22;54940;50.842;4.410;2023-09-19T18:32:22;18.60;99.90
68139;DHT22;54940;50.842;4.410;2023-09-19T18:34:47;18.60;99.90
68139;DHT22;54940;50.842;4.410;2023-09-19T18:37:13;18.60;99.90
68139;DHT22;54940;50.842;4.410;2023-09-19T18:39:39;18.60;99.90
68139;DHT22;54940;50.842;4.410;2023-09-19T18:42:05;18.70;99.90
68139;DHT22;54940;50.842;4.410;2023-09-19T18:44:30;18.70;99.90
68139;DHT22;54940;50.842;4.410;2023-09-19T18:46:56;18.70;99.90
68139;DHT22;54940;50.842;4.410;2023-09-19T18:49:22;18.60;99.90
68139;DHT22;54940;50.842;4.410;2023-09-19T18:51:48;18.70;99.90
68139;DHT22;54940;50.842;4.410;2023-09-19T18:54:13;18.60;99.90
68139;DHT22;54940;50.842;4.410;2023-09-19T18:56:42;18.60;99.90
68139;DHT22;54940;50.842;4.410;2023-09-19T18:59:08;18.60;99.90
68139;DHT22;54940;50.842;4.410;2023-09-19T19:01:35;18.60;99.90
68139;DHT22;54940;50.842;4.410;2023-09-19T19:04:01;18.70;99.90
68139;DHT22;54940;50.842;4.410;2023-09-19T19:06:27;18.60;99.90
68139;DHT22;54940;50.842;4.410;2023-09-19T19:08:53;18.60;99.90
68139;DHT22;54940;50.842;4.410;2023-09-19T19:11:19;18.70;99.90
68139;DHT22;54940;50.842;4.410;2023-09-19T19:13:46;18.60;99.90
68139;DHT22;54940;50.842;4.410;2023-09-19T19:16:12;18.60;99.90
68139;DHT22;54940;50.842;4.410;2023-09-19T19:18:42;18.60;99.90
68139;DHT22;54940;50.842;4.410;2023-09-19T19:21:10;18.60;99.90
68139;DHT22;54940;50.842;4.410;2023-09-19T19:23:38;18.60;99.90
68139;DHT22;54940;50.842;4.410;2023-09-19T19:26:04;18.60;99.90
68139;DHT22;54940;50.842;4.410;2023-09-19T19:28:31;18.60;99.90
68139;DHT22;54940;50.842;4.410;2023-09-19T19:30:57;18.60;99.90
68139;DHT22;54940;50.842;4.410;2023-09-19T19:33:26;18.60;99.90
68139;DHT22;54940;50.842;4.410;2023-09-19T19:35:52;18.70;99.90
68139;DHT22;54940;50.842;4.410;2023-09-19T19:38:18;18.70;99.90
68139;DHT22;54940;50.842;4.410;2023-09-19T19:40:59;18.60;99.90
68139;DHT22;54940;50.842;4.410;2023-09-19T19:43:26;18.60;99.90
68139;DHT22;54940;50.842;4.410;2023-09-19T19:45:56;18.60;99.90
68139;DHT22;54940;50.842;4.410;2023-09-19T19:48:23;18.70;99.90
68139;DHT22;54940;50.842;4.410;2023-09-19T19:50:49;18.60;99.90
68139;DHT22;54940;50.842;4.410;2023-09-19T19:53:14;18.70;99.90
68139;DHT22;54940;50.842;4.410;2023-09-19T19:55:40;18.70;99.90
68139;DHT22;54940;50.842;4.410;2023-09-19T19:58:08;18.80;99.90
68139;DHT22;54940;50.842;4.410;2023-09-19T20:00:34;18.80;99.90
68139;DHT22;54940;50.842;4.410;2023-09-19T20:03:00;18.80;99.90
68139;DHT22;54940;50.842;4.410;2023-09-19T20:05:26;18.80;99.90
68139;DHT22;54940;50.842;4.410;2023-09-19T20:07:52;18.80;99.90
68139;DHT22;54940;50.842;4.410;2023-09-19T20:10:18;18.80;99.90
68139;DHT22;54940;50.842;4.410;2023-09-19T20:12:50;18.80;99.90
68139;DHT22;54940;50.842;4.410;2023-09-19T20:15:17;18.80;99.90
68139;DHT22;54940;50.842;4.410;2023-09-19T20:17:43;18.80;99.90
68139;DHT22;54940;50.842;4.410;2023-09-19T20:20:09;18.80;99.90
68139;DHT22;54940;50.842;4.410;2023-09-19T20:22:44;18.90;99.90
68139;DHT22;54940;50.842;4.410;2023-09-19T20:25:14;18.90;99.90